createdAt,value
2023-03-29T00:00:08.308Z,2.85
2023-03-29T00:02:35.603Z,3.20
2023-03-29T00:05:04.334Z,2.90
2023-03-29T00:07:33.570Z,2.92
2023-03-29T00:10:04.645Z,2.92
2023-03-29T00:12:32.747Z,2.78
2023-03-29T00:14:59.936Z,2.72
2023-03-29T00:17:27.242Z,3.05
2023-03-29T00:19:54.526Z,2.67
2023-03-29T00:22:22.073Z,2.83
2023-03-29T00:24:49.269Z,3.30
2023-03-29T00:27:17.095Z,3.35
2023-03-29T00:29:44.269Z,3.15
2023-03-29T00:32:11.473Z,2.50
2023-03-29T00:34:42.753Z,3.10
2023-03-29T00:37:09.874Z,3.00
2023-03-29T00:39:37.172Z,3.10
2023-03-29T00:42:04.370Z,3.47
2023-03-29T00:45:08.950Z,2.65
2023-03-29T00:47:46.450Z,2.80
2023-03-29T00:50:16.433Z,3.00
2023-03-29T00:52:48.761Z,2.30
2023-03-29T00:55:21.803Z,2.83
2023-03-29T00:57:52.138Z,2.53
2023-03-29T01:00:22.281Z,3.50
2023-03-29T01:02:54.562Z,2.72
2023-03-29T01:05:29.604Z,2.55
2023-03-29T01:08:01.184Z,2.53
2023-03-29T01:10:39.241Z,2.25
2023-03-29T01:13:13.391Z,2.33
2023-03-29T01:15:43.550Z,2.80
2023-03-29T01:18:11.203Z,2.78
2023-03-29T01:20:42.487Z,2.60
2023-03-29T01:23:31.116Z,2.67
2023-03-29T01:26:01.766Z,2.80
2023-03-29T01:28:35.219Z,2.60
2023-03-29T01:31:17.895Z,2.72
2023-03-29T01:33:52.058Z,3.42
2023-03-29T01:36:27.225Z,3.88
2023-03-29T01:38:57.947Z,3.05
2023-03-29T01:41:35.920Z,5.40
2023-03-29T01:44:07.376Z,2.45
2023-03-29T01:46:59.446Z,2.58
2023-03-29T01:52:08.269Z,2.67
2023-03-29T01:54:41.743Z,2.95
2023-03-29T01:57:10.652Z,3.47
2023-03-29T01:59:43.090Z,3.05
2023-03-29T02:02:15.899Z,3.33
2023-03-29T02:04:53.437Z,3.30
2023-03-29T02:07:26.648Z,3.58
2023-03-29T02:09:54.728Z,3.35
2023-03-29T02:12:22.314Z,2.47
2023-03-29T02:14:49.513Z,2.13
2023-03-29T02:17:20.029Z,2.60
2023-03-29T02:19:50.550Z,2.78
2023-03-29T02:22:24.184Z,2.85
2023-03-29T02:24:59.007Z,2.58
2023-03-29T02:27:30.024Z,3.03
2023-03-29T02:29:57.247Z,2.73
2023-03-29T02:32:57.233Z,2.80
2023-03-29T02:35:38.174Z,2.58
2023-03-29T02:38:10.574Z,3.00
2023-03-29T02:40:39.719Z,3.45
2023-03-29T02:43:08.356Z,3.25
2023-03-29T02:45:37.112Z,3.83
2023-03-29T02:48:09.231Z,3.30
2023-03-29T02:50:39.484Z,2.83
2023-03-29T02:53:19.183Z,3.47
2023-03-29T02:55:46.909Z,2.83
2023-03-29T02:58:15.491Z,3.13
2023-03-29T03:00:46.258Z,2.88
2023-03-29T03:03:15.346Z,3.60
2023-03-29T03:05:43.222Z,3.45
2023-03-29T03:08:10.460Z,3.60
2023-03-29T03:10:37.620Z,3.65
2023-03-29T03:13:04.682Z,3.10
2023-03-29T03:15:35.607Z,3.33
2023-03-29T03:18:03.942Z,3.05
2023-03-29T03:20:31.648Z,3.25
2023-03-29T03:22:59.220Z,3.50
2023-03-29T03:25:26.227Z,3.40
2023-03-29T03:27:53.690Z,3.00
2023-03-29T03:30:21.167Z,2.90
2023-03-29T03:32:49.969Z,4.03
2023-03-29T03:35:18.175Z,3.33
2023-03-29T03:37:45.300Z,3.35
2023-03-29T03:40:13.743Z,2.80
2023-03-29T03:42:41.584Z,3.42
2023-03-29T03:45:09.903Z,3.78
2023-03-29T03:47:40.263Z,2.90
2023-03-29T03:50:09.083Z,3.03
2023-03-29T03:52:36.352Z,3.47
2023-03-29T03:55:03.829Z,3.33
2023-03-29T03:57:33.084Z,2.85
2023-03-29T04:00:00.161Z,3.25
2023-03-29T04:02:27.623Z,2.97
2023-03-29T04:04:54.790Z,3.38
2023-03-29T04:07:21.946Z,3.10
2023-03-29T04:09:49.680Z,3.45
2023-03-29T04:12:17.072Z,2.80
2023-03-29T04:14:44.862Z,3.05
2023-03-29T04:17:12.201Z,3.08
2023-03-29T04:19:39.548Z,2.95
2023-03-29T04:22:06.721Z,3.47
2023-03-29T04:24:33.881Z,2.75
2023-03-29T04:27:01.051Z,3.05
2023-03-29T04:29:28.728Z,3.15
2023-03-29T04:31:56.477Z,3.30
2023-03-29T04:34:23.619Z,3.08
2023-03-29T04:36:50.747Z,3.85
2023-03-29T04:39:20.767Z,3.13
2023-03-29T04:41:48.559Z,3.10
2023-03-29T04:44:16.272Z,3.22
2023-03-29T04:46:43.458Z,3.58
2023-03-29T04:49:11.454Z,3.47
2023-03-29T04:51:39.110Z,3.20
2023-03-29T04:54:09.185Z,2.92
2023-03-29T04:56:42.060Z,3.80
2023-03-29T04:59:10.632Z,3.33
2023-03-29T05:01:43.700Z,3.20
2023-03-29T05:04:15.998Z,2.72
2023-03-29T05:06:47.104Z,2.90
2023-03-29T05:09:15.838Z,2.85
2023-03-29T05:11:48.075Z,2.88
2023-03-29T05:14:19.936Z,3.25
2023-03-29T05:19:18.243Z,2.70
2023-03-29T05:21:51.945Z,4.18
2023-03-29T05:24:23.929Z,2.90
2023-03-29T05:26:57.131Z,3.33
2023-03-29T05:29:26.012Z,4.75
2023-03-29T05:31:57.212Z,3.03
2023-03-29T05:37:21.583Z,3.35
2023-03-29T05:39:51.345Z,3.67
2023-03-29T05:42:24.215Z,3.30
2023-03-29T05:44:54.562Z,3.40
2023-03-29T05:47:39.258Z,3.42
2023-03-29T05:50:14.392Z,3.88
2023-03-29T05:52:44.584Z,3.25
2023-03-29T05:55:16.128Z,3.70
2023-03-29T05:57:44.680Z,3.55
2023-03-29T06:00:24.506Z,4.15
2023-03-29T06:03:01.378Z,4.28
2023-03-29T06:05:41.892Z,4.20
2023-03-29T06:08:14.776Z,4.18
2023-03-29T06:10:45.052Z,4.22
2023-03-29T06:13:14.315Z,4.50
2023-03-29T06:15:43.826Z,4.45
2023-03-29T06:18:12.423Z,4.85
2023-03-29T06:20:41.507Z,4.43
2023-03-29T06:23:17.933Z,4.65
2023-03-29T06:25:47.897Z,4.43
2023-03-29T06:28:17.866Z,4.82
2023-03-29T06:30:48.778Z,5.22
2023-03-29T06:33:21.913Z,4.18
2023-03-29T06:35:52.514Z,41.90
2023-03-29T06:38:24.807Z,13.02
2023-03-29T06:40:53.524Z,5.75
2023-03-29T06:43:25.026Z,6.15
2023-03-29T06:45:55.647Z,14.65
2023-03-29T06:48:27.131Z,6.50
2023-03-29T06:50:56.498Z,5.83
2023-03-29T06:53:29.264Z,5.40
2023-03-29T06:55:57.508Z,5.68
2023-03-29T06:58:28.538Z,5.82
2023-03-29T07:01:03.112Z,6.50
2023-03-29T07:03:50.322Z,6.70
2023-03-29T07:06:28.058Z,7.93
2023-03-29T07:09:00.885Z,6.55
2023-03-29T07:11:30.073Z,5.35
2023-03-29T07:16:33.277Z,4.70
2023-03-29T07:19:06.193Z,8.18
2023-03-29T07:21:37.405Z,10.85
2023-03-29T07:27:03.272Z,5.97
2023-03-29T07:29:33.202Z,5.00
2023-03-29T07:32:01.510Z,7.22
2023-03-29T07:34:34.078Z,10.50
2023-03-29T07:37:03.553Z,6.90
2023-03-29T07:39:32.578Z,9.77
2023-03-29T07:42:01.123Z,5.53
2023-03-29T07:44:32.035Z,6.95
2023-03-29T07:47:06.549Z,6.20
2023-03-29T07:49:35.120Z,8.50
2023-03-29T07:52:05.188Z,10.82
2023-03-29T07:54:36.230Z,10.18
2023-03-29T07:57:07.841Z,13.45
2023-03-29T07:59:37.012Z,7.30
2023-03-29T08:02:06.944Z,11.13
2023-03-29T08:04:35.818Z,7.88
2023-03-29T08:07:05.593Z,5.72
2023-03-29T08:09:34.396Z,6.50
2023-03-29T08:12:03.838Z,5.97
2023-03-29T08:14:32.669Z,5.63
2023-03-29T08:17:01.863Z,5.70
2023-03-29T08:19:31.360Z,10.63
2023-03-29T08:22:02.048Z,7.43
2023-03-29T08:24:31.188Z,6.75
2023-03-29T08:27:00.059Z,9.63
2023-03-29T08:29:29.785Z,8.55
2023-03-29T08:32:00.495Z,7.30
2023-03-29T08:34:30.116Z,8.02
2023-03-29T08:37:01.293Z,18.40
2023-03-29T08:39:32.202Z,7.45
2023-03-29T08:42:38.161Z,6.63
2023-03-29T08:45:32.222Z,6.45
2023-03-29T08:48:07.631Z,5.07
2023-03-29T08:50:48.648Z,5.22
2023-03-29T08:53:39.240Z,5.37
2023-03-29T08:56:13.544Z,6.25
2023-03-29T08:58:45.044Z,6.82
2023-03-29T09:01:16.210Z,6.20
2023-03-29T09:04:07.427Z,5.47
2023-03-29T09:06:37.710Z,4.93
2023-03-29T09:09:19.323Z,4.78
2023-03-29T09:11:54.950Z,5.38
2023-03-29T09:14:45.755Z,4.53
2023-03-29T09:17:28.772Z,5.43
2023-03-29T09:20:56.048Z,5.45
2023-03-29T09:23:55.705Z,4.53
2023-03-29T09:26:50.738Z,4.97
2023-03-29T09:29:44.398Z,5.03
2023-03-29T09:32:24.896Z,5.78
2023-03-29T09:35:05.664Z,6.00
2023-03-29T09:37:39.581Z,6.55
2023-03-29T09:40:20.514Z,5.60
2023-03-29T09:42:53.117Z,6.15
2023-03-29T09:45:22.744Z,5.53
2023-03-29T09:48:11.632Z,8.15
2023-03-29T09:50:49.711Z,5.75
2023-03-29T09:53:23.726Z,4.30
2023-03-29T09:55:53.188Z,5.97
2023-03-29T09:58:29.015Z,5.55
2023-03-29T10:01:02.611Z,4.78
2023-03-29T10:03:35.810Z,5.75
2023-03-29T10:08:48.407Z,6.35
2023-03-29T10:11:25.285Z,4.60
2023-03-29T10:14:04.273Z,4.43
2023-03-29T10:16:46.772Z,6.88
2023-03-29T10:19:36.888Z,5.57
2023-03-29T10:22:18.095Z,5.70
2023-03-29T10:25:00.989Z,5.47
2023-03-29T10:27:33.462Z,5.05
2023-03-29T10:30:14.580Z,5.00
2023-03-29T10:32:47.414Z,4.65
2023-03-29T10:35:29.513Z,4.45
2023-03-29T10:38:01.418Z,4.47
2023-03-29T10:40:46.350Z,5.32
2023-03-29T10:43:22.155Z,4.85
2023-03-29T10:45:56.227Z,6.50
2023-03-29T10:48:31.164Z,4.82
2023-03-29T10:51:05.605Z,5.55
2023-03-29T10:53:36.067Z,6.25
2023-03-29T10:56:07.737Z,5.82
2023-03-29T11:01:47.032Z,9.57
2023-03-29T11:04:37.410Z,8.43
2023-03-29T11:07:30.616Z,6.18
2023-03-29T11:10:22.158Z,6.32
2023-03-29T11:13:14.164Z,5.20
2023-03-29T11:15:41.646Z,7.18
2023-03-29T11:18:23.874Z,7.35
2023-03-29T11:21:39.821Z,4.88
2023-03-29T11:24:45.531Z,6.78
2023-03-29T11:27:42.710Z,6.57
2023-03-29T11:30:22.121Z,5.80
2023-03-29T11:33:04.593Z,4.47
2023-03-29T11:35:42.810Z,6.57
2023-03-29T11:38:16.255Z,6.78
2023-03-29T11:41:11.040Z,5.15
2023-03-29T11:43:44.238Z,6.38
2023-03-29T11:46:11.895Z,6.03
2023-03-29T11:48:48.733Z,5.93
2023-03-29T11:51:27.654Z,6.55
2023-03-29T11:54:06.626Z,6.15
2023-03-29T11:56:44.019Z,5.20
2023-03-29T11:59:43.132Z,6.38
2023-03-29T12:02:25.452Z,5.22
2023-03-29T12:04:56.023Z,5.32
2023-03-29T12:07:35.914Z,5.97
2023-03-29T12:10:23.447Z,6.45
2023-03-29T12:12:53.371Z,5.97
2023-03-29T12:15:24.887Z,6.63
2023-03-29T12:18:05.913Z,8.77
2023-03-29T12:20:38.736Z,6.93
2023-03-29T12:23:08.061Z,6.60
2023-03-29T12:26:01.428Z,8.02
2023-03-29T12:28:40.811Z,6.72
2023-03-29T12:31:20.975Z,7.87
2023-03-29T12:34:09.069Z,7.28
2023-03-29T12:37:02.516Z,6.95
2023-03-29T12:39:31.429Z,6.85
2023-03-29T12:42:15.998Z,8.02
2023-03-29T12:44:59.738Z,9.60
2023-03-29T12:47:33.802Z,6.00
2023-03-29T12:50:01.717Z,7.95
2023-03-29T12:52:35.437Z,7.35
2023-03-29T12:55:37.729Z,13.88
2023-03-29T12:58:08.369Z,9.18
2023-03-29T13:00:44.634Z,8.10
2023-03-29T13:03:40.458Z,7.20
2023-03-29T13:06:10.228Z,13.82
2023-03-29T13:08:42.777Z,6.90
2023-03-29T13:11:41.368Z,8.23
2023-03-29T13:14:19.884Z,12.75
2023-03-29T13:16:47.922Z,6.65
2023-03-29T13:19:33.742Z,7.47
2023-03-29T13:22:20.923Z,9.60
2023-03-29T13:25:31.680Z,13.75
2023-03-29T13:28:27.938Z,6.93
2023-03-29T13:30:58.456Z,38.88
2023-03-29T13:34:07.182Z,15.10
2023-03-29T13:36:58.415Z,8.60
2023-03-29T13:39:30.363Z,5.63
2023-03-29T13:42:28.952Z,5.57
2023-03-29T13:45:25.334Z,5.43
2023-03-29T13:48:06.499Z,7.15
2023-03-29T13:50:39.514Z,6.18
2023-03-29T13:53:15.507Z,11.18
2023-03-29T13:55:48.407Z,10.05
2023-03-29T13:58:34.400Z,7.95
2023-03-29T14:01:16.633Z,6.15
2023-03-29T14:03:46.797Z,6.15
2023-03-29T14:06:17.815Z,5.82
2023-03-29T14:08:45.853Z,5.05
2023-03-29T14:11:23.226Z,5.13
2023-03-29T14:13:55.818Z,5.75
2023-03-29T14:16:32.047Z,9.57
2023-03-29T14:19:03.220Z,6.45
2023-03-29T14:21:30.686Z,4.40
2023-03-29T14:24:01.713Z,4.50
2023-03-29T14:26:35.952Z,6.78
2023-03-29T14:29:04.748Z,4.30
2023-03-29T14:31:41.277Z,4.47
2023-03-29T14:34:18.826Z,8.57
2023-03-29T14:36:54.408Z,5.30
2023-03-29T14:39:23.370Z,5.95
2023-03-29T14:41:55.960Z,12.02
2023-03-29T14:44:27.675Z,4.47
2023-03-29T14:46:56.118Z,7.25
2023-03-29T14:49:23.886Z,5.85
2023-03-29T14:51:52.275Z,7.00
2023-03-29T14:54:25.646Z,7.13
2023-03-29T14:56:53.869Z,6.53
2023-03-29T14:59:36.351Z,5.82
2023-03-29T15:02:04.690Z,6.40
2023-03-29T15:04:34.825Z,5.57
2023-03-29T15:07:04.974Z,5.65
2023-03-29T15:09:34.501Z,5.18
2023-03-29T15:12:03.549Z,6.00
2023-03-29T15:14:35.445Z,6.35
2023-03-29T15:17:22.634Z,6.18
2023-03-29T15:20:27.076Z,5.95
2023-03-29T15:23:01.379Z,5.97
2023-03-29T15:25:37.326Z,6.70
2023-03-29T15:28:04.928Z,5.68
2023-03-29T15:30:40.774Z,7.20
2023-03-29T15:33:23.008Z,6.38
2023-03-29T15:35:52.512Z,8.60
2023-03-29T15:38:23.395Z,7.13
2023-03-29T15:40:55.359Z,8.38
2023-03-29T15:43:24.639Z,7.13
2023-03-29T15:45:51.778Z,11.32
2023-03-29T15:48:26.571Z,7.63
2023-03-29T15:50:58.796Z,8.25
2023-03-29T15:53:27.975Z,11.57
2023-03-29T15:55:59.105Z,10.95
2023-03-29T15:58:30.334Z,9.30
2023-03-29T16:01:35.705Z,8.25
2023-03-29T16:04:32.604Z,7.40
2023-03-29T16:06:59.804Z,5.63
2023-03-29T16:09:27.744Z,7.00
2023-03-29T16:11:56.090Z,6.57
2023-03-29T16:14:27.561Z,7.35
2023-03-29T16:17:00.680Z,6.05
2023-03-29T16:19:28.840Z,7.50
2023-03-29T16:21:57.357Z,6.68
2023-03-29T16:24:29.968Z,9.65
2023-03-29T16:26:58.930Z,6.55
2023-03-29T16:29:26.015Z,8.18
2023-03-29T16:31:54.030Z,8.60
2023-03-29T16:34:22.723Z,8.40
2023-03-29T16:36:50.850Z,7.55
2023-03-29T16:39:18.330Z,7.00
2023-03-29T16:41:48.508Z,7.18
2023-03-29T16:44:19.549Z,8.05
2023-03-29T16:46:48.216Z,8.07
2023-03-29T16:49:18.389Z,8.80
2023-03-29T16:51:48.812Z,8.18
2023-03-29T16:54:20.009Z,9.02
2023-03-29T16:56:47.354Z,8.05
2023-03-29T16:59:15.238Z,9.10
2023-03-29T17:01:42.967Z,9.30
2023-03-29T17:04:10.295Z,10.38
2023-03-29T17:06:38.184Z,9.35
2023-03-29T17:09:06.126Z,14.27
2023-03-29T17:11:33.690Z,20.25
2023-03-29T17:14:00.827Z,10.75
2023-03-29T17:16:29.227Z,12.48
2023-03-29T17:19:00.646Z,12.93
2023-03-29T17:21:28.920Z,10.25
2023-03-29T17:23:56.133Z,10.35
2023-03-29T17:26:23.874Z,10.25
2023-03-29T17:28:51.054Z,12.77
2023-03-29T17:31:19.568Z,10.50
2023-03-29T17:33:47.724Z,10.75
2023-03-29T17:36:15.035Z,8.77
2023-03-29T17:38:43.142Z,10.63
2023-03-29T17:41:11.222Z,10.30
2023-03-29T17:43:38.339Z,18.60
2023-03-29T17:46:06.232Z,10.82
2023-03-29T17:48:33.897Z,10.52
2023-03-29T17:51:01.252Z,9.10
2023-03-29T17:53:28.475Z,9.25
2023-03-29T17:55:55.803Z,8.55
2023-03-29T17:58:22.965Z,9.35
2023-03-29T18:00:50.527Z,7.43
2023-03-29T18:03:17.854Z,10.10
2023-03-29T18:05:45.579Z,10.70
2023-03-29T18:08:13.791Z,8.98
2023-03-29T18:10:41.004Z,8.60
2023-03-29T18:13:11.432Z,9.02
2023-03-29T18:15:38.793Z,9.40
2023-03-29T18:18:06.344Z,9.88
2023-03-29T18:20:33.447Z,8.88
2023-03-29T18:23:00.969Z,9.10
2023-03-29T18:25:29.437Z,8.70
2023-03-29T18:27:56.542Z,9.35
2023-03-29T18:30:23.771Z,10.73
2023-03-29T18:32:50.936Z,11.27
2023-03-29T18:35:18.128Z,9.48
2023-03-29T18:37:45.407Z,9.48
2023-03-29T18:40:12.849Z,9.27
2023-03-29T18:42:39.888Z,8.68
2023-03-29T18:45:07.728Z,9.18
2023-03-29T18:47:35.367Z,8.93
2023-03-29T18:50:02.857Z,8.75
2023-03-29T18:52:30.101Z,9.23
2023-03-29T18:54:58.000Z,8.43
2023-03-29T18:57:25.318Z,8.20
2023-03-29T18:59:52.403Z,8.15
2023-03-29T19:02:19.603Z,7.95
2023-03-29T19:04:46.823Z,7.70
2023-03-29T19:08:20.012Z,7.68
2023-03-29T19:10:47.495Z,7.93
2023-03-29T19:13:15.181Z,7.93
2023-03-29T19:15:42.422Z,9.13
2023-03-29T19:18:10.017Z,7.82
2023-03-29T19:20:38.122Z,8.93
2023-03-29T19:23:05.579Z,8.15
2023-03-29T19:25:33.368Z,7.68
2023-03-29T19:28:54.573Z,7.68
2023-03-29T19:31:29.503Z,7.45
2023-03-29T19:33:57.226Z,7.45
2023-03-29T19:36:25.869Z,7.82
2023-03-29T19:38:54.127Z,7.72
2023-03-29T19:41:22.114Z,9.52
2023-03-29T19:43:49.218Z,8.98
2023-03-29T19:46:16.660Z,8.00
2023-03-29T19:48:43.843Z,10.98
2023-03-29T19:51:11.154Z,9.10
2023-03-29T19:53:39.069Z,8.82
2023-03-29T19:56:07.913Z,9.90
2023-03-29T19:58:35.116Z,8.50
2023-03-29T20:01:02.750Z,10.18
2023-03-29T20:03:30.058Z,9.48
2023-03-29T20:05:57.412Z,10.15
2023-03-29T20:08:25.870Z,9.98
2023-03-29T20:11:01.934Z,10.20
2023-03-29T20:13:38.068Z,9.30
2023-03-29T20:16:14.575Z,9.90
2023-03-29T20:18:45.106Z,10.00
2023-03-29T20:21:18.446Z,9.23
2023-03-29T20:23:46.053Z,10.20
2023-03-29T20:26:13.400Z,12.93
2023-03-29T20:28:43.229Z,10.27
2023-03-29T20:31:11.181Z,14.30
2023-03-29T20:33:39.371Z,10.27
2023-03-29T20:36:07.026Z,12.80
2023-03-29T20:38:35.430Z,12.20
2023-03-29T20:41:04.325Z,13.68
2023-03-29T20:43:37.623Z,9.88
2023-03-29T20:46:05.810Z,9.70
2023-03-29T20:48:32.936Z,15.90
2023-03-29T20:51:03.888Z,9.43
2023-03-29T20:53:34.630Z,11.30
2023-03-29T20:56:02.069Z,13.75
2023-03-29T20:58:29.771Z,9.00
2023-03-29T21:00:58.963Z,9.85
2023-03-29T21:03:26.498Z,10.65
2023-03-29T21:05:55.179Z,9.82
2023-03-29T21:08:22.275Z,10.27
2023-03-29T21:10:49.385Z,10.00
2023-03-29T21:13:18.285Z,10.75
2023-03-29T21:15:46.451Z,15.68
2023-03-29T21:18:14.006Z,10.27
2023-03-29T21:20:42.031Z,12.68
2023-03-29T21:23:12.022Z,11.15
2023-03-29T21:25:39.774Z,11.32
2023-03-29T21:28:06.985Z,9.88
2023-03-29T21:30:34.046Z,11.43
2023-03-29T21:33:01.699Z,10.95
2023-03-29T21:35:28.886Z,10.73
2023-03-29T21:37:56.375Z,12.25
2023-03-29T21:40:23.486Z,10.40
2023-03-29T21:42:51.102Z,12.20
2023-03-29T21:45:18.411Z,12.95
2023-03-29T21:47:45.725Z,10.70
2023-03-29T21:50:12.822Z,11.50
2023-03-29T21:52:39.848Z,15.00
2023-03-29T21:55:07.212Z,11.80
2023-03-29T21:57:34.506Z,10.73
2023-03-29T22:00:01.796Z,10.93
2023-03-29T22:02:28.982Z,12.35
2023-03-29T22:04:56.734Z,13.25
2023-03-29T22:07:26.769Z,11.55
2023-03-29T22:09:54.799Z,14.18
2023-03-29T22:12:22.864Z,14.07
2023-03-29T22:14:50.023Z,11.60
2023-03-29T22:17:17.255Z,11.93
2023-03-29T22:19:44.425Z,12.38
2023-03-29T22:22:14.407Z,11.82
2023-03-29T22:24:44.567Z,11.38
2023-03-29T22:27:12.400Z,12.32
2023-03-29T22:29:39.849Z,12.00
2023-03-29T22:32:06.983Z,12.13
2023-03-29T22:34:34.219Z,11.50
2023-03-29T22:37:01.369Z,14.25
2023-03-29T22:39:28.734Z,12.32
2023-03-29T22:41:57.432Z,13.55
2023-03-29T22:44:24.550Z,12.50
2023-03-29T22:46:52.311Z,12.88
2023-03-29T22:49:20.008Z,13.25
2023-03-29T22:51:47.097Z,12.82
2023-03-29T22:54:14.277Z,13.30
2023-03-29T22:56:41.422Z,13.13
2023-03-29T22:59:08.834Z,13.13
2023-03-29T23:01:36.049Z,12.77
2023-03-29T23:04:04.763Z,12.60
2023-03-29T23:06:31.965Z,13.55
2023-03-29T23:08:59.090Z,12.73
2023-03-29T23:11:26.658Z,14.32
2023-03-29T23:13:54.020Z,13.93
2023-03-29T23:16:21.576Z,13.50
2023-03-29T23:18:49.446Z,13.82
2023-03-29T23:21:16.701Z,14.95
2023-03-29T23:23:45.087Z,14.18
2023-03-29T23:26:12.492Z,14.10
2023-03-29T23:28:41.214Z,15.07
2023-03-29T23:31:11.755Z,16.08
2023-03-29T23:33:42.431Z,16.00
2023-03-29T23:36:12.641Z,16.63
2023-03-29T23:38:40.517Z,16.02
2023-03-29T23:41:11.685Z,17.10
2023-03-29T23:43:42.602Z,17.10
2023-03-29T23:46:13.182Z,17.77
2023-03-29T23:48:40.760Z,16.88
2023-03-29T23:51:08.162Z,18.30
2023-03-29T23:53:35.645Z,16.95
2023-03-29T23:56:05.044Z,18.45
2023-03-29T23:58:34.930Z,18.00
